Date,TemperatureHighF,TemperatureAvgF,TemperatureLowF,DewpointHighF,DewpointAvgF,DewpointLowF,HumidityHigh,HumidityAvg,HumidityLow,PressureMaxIn,PressureMinIn,WindSpeedMaxMPH,WindSpeedAvgMPH,GustSpeedMaxMPH,PrecipitationSumIn
2013-1-1,19.5,15.4,10.1,15.0,10.3,7.0,87,80,71,30.34,30.20,11,3,12,0.00
2013-1-2,29.1,18.5,6.8,19.0,11.9,4.0,91,76,61,30.31,30.19,8,4,14,0.00
2013-1-3,33.5,26.3,15.9,28.0,21.7,11.0,88,83,75,30.43,30.22,12,4,15,0.02
2013-1-4,36.0,24.1,12.3,24.0,17.7,9.0,88,77,59,30.41,30.32,12,3,20,0.01
2013-1-5,38.5,31.5,23.3,34.0,27.7,20.0,94,85,75,30.32,30.07,12,4,15,0.02
2013-1-6,37.3,27.4,22.2,33.0,21.7,18.0,87,79,66,30.40,30.06,19,6,23,0.00
2013-1-7,41.2,30.5,20.2,30.0,24.4,18.0,91,79,63,30.40,30.15,13,6,21,0.00
2013-1-8,47.5,36.8,28.8,33.0,29.1,25.0,85,74,55,30.19,30.09,9,5,13,0.00
2013-1-9,49.1,41.2,31.9,36.0,32.4,27.0,85,71,55,30.52,30.13,10,4,16,0.00
2013-1-10,48.8,38.0,31.0,48.0,33.4,26.0,98,84,62,30.49,29.82,8,2,14,0.77
2013-1-11,57.9,51.7,47.1,52.0,48.3,46.0,99,88,74,29.84,29.70,15,7,22,0.03
2013-1-12,53.6,39.7,24.3,48.0,34.2,22.0,92,81,64,30.02,29.74,14,7,24,0.01
2013-1-13,24.0,18.8,13.9,21.0,14.0,9.0,90,81,74,30.38,29.97,13,5,16,0.00
2013-1-14,25.7,16.8,11.8,16.0,11.6,8.0,87,80,62,30.55,30.39,7,2,12,0.00
2013-1-15,29.6,20.1,11.7,19.0,14.5,9.0,90,79,61,30.50,30.20,6,0,9,0.01
2013-1-16,39.7,28.5,17.1,28.0,19.4,12.0,85,69,49,30.21,29.99,20,3,21,0.03
2013-1-17,35.0,29.6,24.6,29.0,22.0,17.0,91,74,57,30.50,30.15,13,5,20,0.00
2013-1-18,48.9,36.2,23.4,32.0,25.0,18.0,86,66,48,30.50,30.05,15,6,22,0.00
2013-1-19,55.1,44.6,36.9,38.0,32.2,25.0,74,62,51,30.13,29.87,15,7,25,0.00
2013-1-20,34.0,19.7,15.5,27.0,11.2,7.0,86,70,57,30.40,30.14,24,7,31,0.00
2013-1-21,14.7,10.7,6.7,10.0,0.2,-5.0,82,63,45,30.45,30.34,17,8,26,0.00
2013-1-22,16.3,9.4,2.7,3.0,-1.1,-4.0,75,63,45,30.55,30.44,11,4,14,0.00
2013-1-23,35.8,22.8,12.8,19.0,10.8,2.0,77,61,45,30.45,30.18,16,6,23,0.00
2013-1-24,24.2,17.3,8.5,11.0,4.4,-2.0,73,58,43,30.68,30.34,16,4,20,0.00
2013-1-25,38.6,29.2,22.7,22.0,15.7,9.0,75,58,44,30.31,30.10,14,5,21,0.00
2013-1-26,33.0,23.1,11.5,15.0,10.9,6.0,80,61,42,30.46,30.29,9,3,17,0.00
2013-1-27,45.0,32.9,25.6,45.0,29.1,15.0,98,86,62,30.37,29.92,15,5,20,0.26
2013-1-28,58.7,51.7,45.4,57.0,50.7,45.0,99,96,90,29.96,29.78,11,4,17,0.00
2013-1-29,63.2,56.0,40.1,60.0,54.7,39.0,99,95,87,29.78,29.43,11,5,22,1.12
2013-1-30,39.3,30.3,19.6,39.0,27.6,14.0,99,89,74,29.89,29.31,25,10,38,0.11
2013-1-31,24.0,15.9,5.8,17.0,8.6,-3.0,83,73,63,30.40,29.89,19,10,27,0.00
2013-2-1,22.1,11.9,2.0,19.0,3.4,-4.0,90,69,53,30.52,30.25,16,6,24,0.00
2013-2-2,29.3,23.5,19.8,23.0,18.2,15.0,89,80,69,30.25,30.09,13,5,19,0.00
2013-2-3,30.1,25.4,20.1,24.0,18.0,13.0,94,74,51,30.20,30.03,17,6,25,0.00
2013-2-4,39.0,29.8,24.5,28.0,22.8,19.0,84,75,63,30.03,29.83,16,6,20,0.00
2013-2-5,44.0,32.5,22.6,32.0,26.6,20.0,89,80,63,30.15,29.90,12,5,24,0.00
2013-2-6,47.5,35.4,25.6,33.0,26.9,-99.9,96,77,56,30.25,30.06,14,-17,15,0.00
2013-2-7,38.6,36.3,33.3,38.0,34.7,32.0,97,94,81,30.09,29.88,19,4,20,0.44
2013-2-8,33.0,29.8,26.6,32.0,26.6,24.0,97,88,82,30.42,30.09,13,5,23,0.00
2013-2-9,36.4,31.5,26.5,33.0,27.5,23.0,90,85,75,30.41,30.05,11,5,20,0.01
2013-2-10,50.8,43.2,35.2,48.0,39.5,30.0,96,88,58,30.06,29.51,19,8,30,0.50
2013-2-11,41.9,35.6,28.6,31.0,25.4,22.0,85,67,56,30.17,29.68,24,11,36,0.00
2013-2-12,40.4,31.0,24.0,28.0,25.2,22.0,92,80,57,30.20,29.98,8,2,11,0.00
2013-2-13,47.6,36.7,26.3,33.0,28.5,24.0,91,73,48,29.98,29.81,9,3,17,0.00
2013-2-14,43.1,38.0,33.0,32.0,30.9,28.0,83,76,64,30.09,29.77,19,6,25,0.00
2013-2-15,35.0,27.9,21.7,29.0,16.9,13.0,85,65,41,30.31,30.09,13,7,19,0.00
2013-2-16,31.3,22.4,14.5,16.0,12.5,8.0,84,67,49,30.31,30.21,14,5,18,0.00
2013-2-17,40.5,28.0,15.0,26.0,18.2,11.0,88,69,46,30.24,29.92,14,4,20,0.00
2013-2-18,54.4,39.9,26.2,47.0,33.8,20.0,94,79,65,29.92,29.49,23,10,29,0.52
2013-2-19,26.0,21.0,16.6,20.0,12.7,8.0,81,71,59,30.34,29.86,25,12,33,0.00
2013-2-20,21.1,15.4,6.6,14.0,8.0,1.0,82,72,61,30.50,30.33,14,5,19,0.00
2013-2-21,28.7,22.3,15.2,28.0,19.5,12.0,96,89,80,30.41,29.89,12,3,15,0.00
2013-2-22,31.8,28.9,23.4,31.0,26.3,19.0,97,90,82,30.06,29.82,11,4,20,0.14
2013-2-23,30.2,24.6,20.0,20.0,18.3,16.0,88,77,66,30.07,30.02,8,2,12,0.16
2013-2-24,39.0,28.3,16.2,25.0,20.6,14.0,92,74,54,30.17,30.06,6,2,10,0.13
2013-2-25,42.1,33.7,22.7,33.0,28.0,21.0,94,80,63,30.15,29.84,14,2,19,0.00
2013-2-26,35.0,32.4,30.5,32.0,30.6,29.0,97,93,79,29.84,29.48,18,7,23,0.20
2013-2-27,32.8,31.0,29.7,30.0,29.4,29.0,95,93,88,29.88,29.64,14,6,17,0.18
2013-2-28,33.6,31.6,29.5,30.0,29.7,28.0,96,92,86,30.13,29.88,11,6,16,0.09
2013-3-1,29.6,27.3,24.1,28.0,24.3,20.0,96,88,80,30.28,30.11,12,6,16,0.05
2013-3-2,27.9,23.6,16.7,20.0,17.5,13.0,85,77,66,30.31,30.25,11,4,15,0.01
2013-3-3,33.0,24.1,10.9,22.0,14.6,9.0,92,69,42,30.26,30.10,5,1,11,0.06
2013-3-4,39.1,32.9,28.6,30.0,27.4,22.0,91,80,69,30.11,29.86,10,3,19,0.05
2013-3-5,32.7,30.9,28.9,31.0,27.6,23.0,96,88,72,30.15,29.88,22,8,26,0.08
2013-3-6,29.0,26.5,23.6,25.0,22.0,20.0,87,83,79,30.41,30.16,14,7,23,0.00
2013-3-7,38.4,29.6,23.6,29.0,24.2,20.0,88,81,65,30.47,30.38,9,2,11,0.01
2013-3-8,47.7,37.0,26.4,35.0,30.6,24.0,92,78,59,30.46,30.23,11,3,17,0.00
2013-3-9,53.0,44.2,36.6,45.0,38.1,33.0,96,80,65,30.23,29.77,16,6,19,0.60
2013-3-10,51.5,48.8,44.5,50.0,47.0,41.0,98,93,69,29.79,29.58,11,3,18,0.86
2013-3-11,43.9,33.8,30.2,42.0,31.4,25.0,96,91,81,29.98,29.66,18,8,24,0.02
2013-3-12,41.2,30.7,25.2,29.0,24.4,20.0,90,77,60,30.22,29.97,19,7,27,0.00
2013-3-13,36.3,28.7,22.8,20.0,18.1,15.0,81,66,43,30.43,30.22,17,7,24,0.00
2013-3-14,50.0,35.9,25.7,34.0,26.5,18.0,88,70,47,30.42,30.12,13,4,17,0.00
2013-3-15,58.6,44.5,31.2,45.0,37.4,29.0,93,78,56,30.11,29.66,8,2,10,0.00
2013-3-16,45.9,38.0,33.8,43.0,34.0,28.0,97,86,73,30.13,29.65,14,5,19,0.00
2013-3-17,39.4,33.8,30.1,30.0,27.4,24.0,84,78,65,30.19,29.90,9,3,14,0.00
2013-3-18,45.2,34.1,26.7,36.0,29.4,17.0,97,84,51,30.01,29.73,24,6,31,0.05
2013-3-19,41.8,30.9,22.2,19.0,15.3,12.0,76,55,31,30.21,29.98,15,7,21,0.00
2013-3-20,29.3,24.4,16.8,21.0,10.8,5.0,79,58,38,30.29,30.16,20,9,26,0.00
2013-3-21,35.9,24.2,13.2,13.0,10.1,7.0,81,58,36,30.19,30.05,11,2,16,0.00
2013-3-22,41.5,30.8,18.6,21.0,16.3,12.0,83,57,36,30.12,30.03,7,1,12,0.00
2013-3-23,49.6,40.4,32.6,26.0,23.9,19.0,73,53,37,30.12,29.95,9,3,16,0.00
2013-3-24,37.2,30.0,28.9,30.0,28.6,26.0,98,94,64,29.98,29.68,14,7,20,0.01
2013-3-25,32.9,29.9,27.6,29.0,27.2,25.0,97,89,78,30.21,29.85,16,7,22,0.13
2013-3-26,38.8,32.9,27.9,27.0,24.9,23.0,85,73,55,30.36,30.21,14,5,16,0.17
2013-3-27,43.7,35.2,26.5,25.0,23.6,21.0,82,64,42,30.43,30.34,7,2,12,0.00
2013-3-28,47.5,37.8,25.0,31.0,26.0,21.0,87,64,44,30.41,30.31,10,2,14,0.00
2013-3-29,59.2,45.8,33.3,36.0,32.7,29.0,84,63,38,30.32,30.23,5,1,11,0.00
2013-3-30,54.4,47.4,39.4,44.0,39.4,34.0,87,74,59,30.23,29.92,14,5,22,0.00
2013-3-31,60.1,49.0,38.9,47.0,40.9,30.0,97,76,41,29.99,29.85,17,6,24,0.00
2013-4-1,43.4,36.1,28.8,30.0,21.1,14.0,80,57,32,30.29,29.99,15,8,20,0.00
2013-4-2,47.4,34.0,23.2,22.0,17.7,10.0,82,56,22,30.38,30.29,13,4,18,0.00
2013-4-3,52.2,37.7,24.2,21.0,18.1,15.0,79,50,24,30.47,30.31,9,2,14,0.00
2013-4-4,60.1,46.7,31.1,26.0,22.5,20.0,70,41,23,30.31,30.05,8,2,13,0.00
2013-4-5,61.6,48.8,35.3,33.0,28.2,23.0,83,50,23,30.21,30.04,7,3,14,0.00
2013-4-6,71.5,58.8,46.8,51.0,35.8,24.0,66,44,26,30.05,29.66,20,8,32,0.03
2013-4-7,73.7,59.1,43.3,49.0,42.9,40.0,88,59,33,29.95,29.76,7,2,12,0.00
2013-4-8,75.1,64.3,55.4,60.0,56.5,51.0,94,77,56,29.85,29.61,11,4,23,0.40
2013-4-9,76.8,67.1,61.3,61.0,58.5,56.0,85,75,53,29.85,29.77,12,4,23,0.00
2013-4-10,66.6,51.5,44.2,60.0,49.5,43.0,98,93,80,29.91,29.65,13,4,25,1.66
2013-4-11,48.9,44.5,37.4,49.0,40.5,30.0,99,86,73,29.71,29.62,14,5,18,0.06
2013-4-12,42.8,39.3,36.8,35.0,32.7,30.0,87,77,70,29.98,29.68,16,7,23,0.00
2013-4-13,53.6,44.6,35.1,37.0,31.5,26.0,78,61,43,30.07,29.94,14,5,19,0.00
2013-4-14,75.5,60.7,46.4,54.0,45.5,35.0,84,60,38,29.95,29.58,23,7,30,0.00
2013-4-15,63.9,53.5,44.7,55.0,48.7,41.0,97,84,62,29.98,29.69,15,4,24,0.16
2013-4-16,51.9,45.7,40.3,42.0,38.8,37.0,95,78,60,30.20,29.97,11,4,17,0.10
2013-4-17,56.2,48.9,43.4,56.0,46.0,37.0,98,90,72,30.20,29.68,20,4,31,1.50
2013-4-18,62.6,52.1,38.0,61.0,50.0,32.0,99,93,78,29.73,29.49,18,6,29,1.03
2013-4-19,43.4,38.7,34.8,32.0,29.1,28.0,80,69,56,30.08,29.69,27,11,27,0.01
2013-4-20,50.6,39.8,28.7,31.0,27.7,25.0,87,64,39,30.39,30.08,7,2,12,0.00
2013-4-21,58.8,48.6,38.5,41.0,35.0,29.0,74,60,48,30.45,30.27,19,6,21,0.00
2013-4-22,69.1,57.1,44.5,49.0,38.6,34.0,75,52,32,30.29,29.99,13,4,17,0.01
2013-4-23,56.3,43.3,37.4,49.0,40.7,36.0,95,90,76,30.05,29.93,17,7,21,0.55
2013-4-24,51.2,42.1,34.8,36.0,31.7,28.0,95,69,42,30.22,30.03,12,5,17,0.04
2013-4-25,58.8,48.8,39.7,34.0,31.1,27.0,78,53,33,30.35,30.18,12,5,20,0.00
2013-4-26,61.1,52.7,44.8,47.0,41.4,33.0,81,66,54,30.34,30.25,16,5,20,0.00
2013-4-27,55.5,50.9,43.4,50.0,47.0,42.0,97,87,71,30.30,29.98,6,1,10,0.08
2013-4-28,66.9,56.0,50.6,53.0,50.9,48.0,98,84,60,29.97,29.86,7,3,10,0.02
2013-4-29,77.8,62.4,46.9,60.0,54.1,46.0,97,76,53,29.91,29.71,18,6,21,0.00
2013-4-30,85.5,72.8,59.3,62.0,56.2,49.0,93,61,29,29.92,29.73,14,6,21,0.00
2013-5-1,83.0,72.3,59.4,57.0,53.3,44.0,82,54,26,30.09,29.92,12,4,17,0.00
2013-5-2,68.1,54.1,42.0,58.0,47.4,40.0,94,78,65,30.19,30.07,17,7,24,0.23
2013-5-3,47.9,43.7,42.1,47.0,42.9,41.0,98,96,94,30.13,29.81,13,6,17,2.08
2013-5-4,56.5,50.5,45.0,54.0,49.4,44.0,99,95,87,30.05,29.83,7,2,14,0.21
2013-5-5,69.9,58.5,48.2,59.0,52.4,47.0,98,82,54,30.05,29.92,12,3,15,0.00
2013-5-6,75.3,64.0,51.5,54.0,48.8,43.0,92,62,33,30.02,29.95,13,4,19,0.00
2013-5-7,80.9,67.5,52.0,52.0,44.5,35.0,81,47,21,30.05,29.97,6,1,11,0.00
2013-5-8,81.3,69.0,55.0,57.0,47.2,39.0,73,49,26,30.03,29.95,7,2,12,0.00
2013-5-9,69.9,62.1,58.8,62.0,58.9,55.0,96,89,73,29.97,29.82,10,3,22,0.67
2013-5-10,59.1,54.6,50.9,58.0,52.2,48.0,97,91,83,30.01,29.82,11,4,16,0.01
2013-5-11,60.2,52.3,44.4,52.0,39.2,29.0,98,65,36,30.16,29.97,20,6,32,0.00
2013-5-12,58.6,48.6,37.9,32.0,28.7,25.0,73,49,29,30.24,30.15,14,5,22,0.00
2013-5-13,72.1,58.1,42.9,42.0,33.4,27.0,63,42,21,30.22,30.00,7,2,12,0.00
2013-5-14,90.9,73.6,55.4,61.0,53.0,43.0,75,51,33,29.99,29.71,14,6,20,0.00
2013-5-15,85.8,77.2,69.3,61.0,57.2,53.0,70,51,41,29.84,29.76,12,4,21,0.00
2013-5-16,83.7,72.6,61.1,63.0,58.8,54.0,91,64,39,29.92,29.82,10,2,21,0.00
2013-5-17,81.0,69.5,57.7,65.0,59.1,55.0,90,71,42,29.97,29.91,10,2,15,0.00
2013-5-18,81.6,71.7,62.1,66.0,62.8,61.0,97,76,51,30.01,29.88,10,3,13,0.01
2013-5-19,88.4,76.2,65.8,72.0,67.0,63.0,90,74,53,29.89,29.67,15,5,21,0.00
2013-5-20,81.4,70.5,61.1,68.0,62.1,58.0,96,77,49,29.82,29.67,21,6,35,1.27
2013-5-21,80.6,70.3,61.9,64.0,61.2,57.0,94,75,48,29.72,29.65,11,5,17,0.00
2013-5-22,73.0,64.7,58.7,62.0,56.8,53.0,96,77,52,29.83,29.63,15,4,17,0.05
2013-5-23,65.1,57.9,50.3,56.0,52.2,48.0,96,82,58,30.25,29.83,15,5,23,0.00
2013-5-24,68.9,55.5,42.7,48.0,41.7,36.0,97,65,30,30.44,30.26,7,1,11,0.01
2013-5-25,55.8,51.9,48.7,52.0,46.9,42.0,96,83,64,30.39,30.18,11,1,15,0.74
2013-5-26,67.6,57.6,50.4,61.0,54.4,48.0,96,89,77,30.24,30.01,9,2,17,0.42
2013-5-27,70.4,64.2,57.8,66.0,62.4,56.0,98,94,82,30.03,29.74,14,2,20,1.02
2013-5-28,77.4,70.4,61.8,71.0,66.0,59.0,98,86,76,29.94,29.72,29,6,31,0.71
2013-5-29,85.4,73.1,60.7,69.0,64.4,60.0,96,76,51,29.94,29.78,12,5,19,0.01
2013-5-30,82.5,71.7,61.3,70.0,65.1,59.0,97,80,59,29.86,29.73,16,7,29,1.11
2013-5-31,73.2,65.2,61.9,70.0,60.7,-99.9,98,92,86,29.88,29.69,12,-7,16,0.10
2013-6-1,75.1,67.0,60.0,68.0,61.8,56.0,97,84,56,29.84,29.69,14,6,19,0.09
2013-6-2,61.1,59.0,55.2,58.0,53.8,50.0,92,83,73,30.04,29.83,12,5,19,0.00
2013-6-3,68.7,59.8,51.0,52.0,49.5,44.0,96,71,46,30.14,30.02,6,1,10,0.00
2013-6-4,73.6,62.4,49.4,57.0,52.5,48.0,94,72,50,30.12,30.01,9,2,13,0.00
2013-6-5,79.2,66.9,55.0,61.0,53.7,-99.9,98,70,44,30.04,29.88,8,-9,10,0.00
2013-6-6,74.7,65.6,59.2,60.0,58.5,56.0,94,79,53,29.89,29.84,11,4,15,0.00
2013-6-7,72.4,62.2,53.6,57.0,54.3,52.0,96,77,51,29.93,29.88,11,3,16,0.00
2013-6-8,78.6,66.8,51.7,56.0,53.5,50.0,96,66,39,29.97,29.90,7,2,10,0.00
2013-6-9,74.8,67.0,62.7,65.0,59.8,55.0,94,78,61,29.93,29.77,7,3,15,0.07
2013-6-10,79.2,68.2,60.7,63.0,60.6,59.0,96,78,52,29.89,29.74,7,2,13,0.07
2013-6-11,89.1,73.5,60.5,73.0,62.2,-99.9,95,74,54,29.93,29.80,8,-8,14,0.03
2013-6-12,93.3,82.1,70.7,74.0,70.8,68.0,93,70,51,29.89,29.62,18,5,23,0.00
2013-6-13,83.1,73.9,66.5,67.0,58.4,52.0,89,61,35,29.98,29.70,16,6,24,0.00
2013-6-14,79.3,69.8,57.8,64.0,58.1,53.0,86,68,46,30.11,29.94,5,1,8,0.00
2013-6-15,82.7,69.7,64.9,70.0,65.4,62.0,97,87,63,30.07,29.83,11,3,24,2.11
2013-6-16,84.6,73.7,64.9,70.0,67.2,64.0,97,81,61,29.97,29.89,8,2,12,2.11
2013-6-17,86.1,75.7,64.1,70.0,65.6,59.0,99,74,42,29.96,29.88,6,1,9,0.00
2013-6-18,82.2,73.5,64.3,69.0,64.9,57.0,94,75,58,30.00,29.88,7,3,13,0.00
2013-6-19,85.1,71.2,56.4,62.0,57.6,53.0,93,65,36,30.09,30.00,4,1,7,0.00
2013-6-20,89.5,77.2,62.0,68.0,63.5,56.0,89,65,43,30.11,30.01,9,2,13,0.00
2013-6-21,92.0,79.4,71.2,73.0,69.4,65.0,88,72,51,30.05,29.94,11,3,18,0.00
2013-6-22,87.6,77.1,69.9,75.0,70.6,64.0,89,80,62,30.05,29.94,9,4,18,0.01
2013-6-23,87.4,72.6,67.2,73.0,66.8,63.0,96,83,57,30.01,29.89,16,4,24,0.42
2013-6-24,85.9,72.7,67.4,76.0,68.4,65.0,95,87,68,30.06,29.86,10,3,24,0.31
2013-6-25,84.4,74.4,69.0,75.0,71.0,67.0,97,89,71,29.92,29.80,7,2,22,0.64
2013-6-26,85.8,76.5,70.0,77.0,72.3,65.0,97,87,72,29.83,29.70,11,2,15,0.64
2013-6-27,90.8,79.2,71.4,74.0,69.6,65.0,98,74,43,29.86,29.76,9,4,16,0.00
2013-6-28,84.3,76.5,66.8,68.0,61.7,54.0,90,63,36,29.81,29.66,21,5,28,0.00
2013-6-29,73.6,67.5,64.0,66.0,62.4,60.0,93,84,71,29.77,29.64,9,4,17,0.18
2013-6-30,77.8,67.5,61.0,63.0,60.9,58.0,95,80,52,29.97,29.77,11,5,28,0.08
2013-7-1,77.9,67.6,56.9,57.0,53.1,50.0,83,62,40,30.03,29.96,13,5,20,0.08
2013-7-2,75.6,66.5,56.8,57.0,54.5,52.0,85,66,47,30.05,30.00,14,3,16,0.00
2013-7-3,80.6,69.1,57.1,61.0,56.8,51.0,94,68,38,30.08,30.00,4,1,8,0.00
2013-7-4,85.4,73.8,61.6,65.0,61.0,58.0,93,67,40,30.07,29.99,7,2,9,0.00
2013-7-5,85.6,74.7,63.5,68.0,62.9,57.0,95,69,38,30.06,29.98,8,2,11,0.00
2013-7-6,85.9,73.3,65.2,69.0,65.9,62.0,95,79,49,30.03,29.95,7,2,12,0.00
2013-7-7,90.2,78.5,66.3,73.0,68.1,62.0,91,72,51,30.00,29.94,9,3,13,0.00
2013-7-8,77.9,76.1,72.4,71.0,68.5,67.0,89,77,70,30.01,29.96,7,3,13,0.01
2013-7-18,93.6,84.5,79.6,76.0,69.2,-99.9,81,65,52,30.07,29.97,5,-25,11,0.00
2013-7-19,95.8,85.2,74.7,74.0,71.1,66.0,86,65,39,29.97,29.80,9,3,21,0.00
2013-7-20,86.3,79.0,70.0,71.0,67.6,63.0,88,69,47,29.90,29.82,9,3,11,0.00
2013-7-21,80.0,72.2,67.1,73.0,68.7,65.0,97,89,74,29.92,29.83,6,1,11,0.18
2013-7-22,87.4,75.9,64.6,74.0,69.5,64.0,99,82,58,29.86,29.75,8,2,28,0.18
2013-7-23,82.2,72.3,63.6,69.0,64.2,60.0,96,76,60,29.93,29.76,12,4,22,0.01
2013-7-24,76.2,66.9,56.8,60.0,56.6,54.0,95,72,48,30.05,29.92,9,2,13,0.00
2013-7-25,81.0,68.8,55.0,63.0,57.7,54.0,96,70,46,30.12,30.03,6,1,13,0.00
2013-7-26,78.1,66.8,60.3,70.0,63.2,58.0,97,88,76,30.05,29.90,10,2,20,0.72
2013-7-27,68.3,61.3,52.9,58.0,52.4,47.0,96,75,47,30.00,29.95,16,5,23,0.73
2013-7-28,75.5,63.3,52.5,55.0,50.7,46.0,91,66,43,30.06,29.97,12,3,18,0.00
2013-7-29,78.2,65.4,52.6,63.0,56.3,51.0,97,75,45,30.16,30.06,7,1,8,0.00
2013-7-30,72.0,66.8,62.8,69.0,65.2,59.0,98,94,73,30.13,30.00,6,1,9,0.12
2013-7-31,75.4,70.2,66.7,68.0,66.9,65.0,99,89,75,30.05,29.99,9,3,11,0.12
2013-8-1,84.4,71.7,63.0,66.0,63.3,59.0,97,77,44,30.06,29.95,8,2,10,0.01
2013-8-2,85.0,73.2,66.3,73.0,66.5,63.0,94,80,54,29.96,29.87,10,3,16,0.00
2013-8-3,81.0,72.5,63.8,68.0,62.4,58.0,96,73,46,30.12,29.94,11,3,12,0.00
2013-8-4,80.7,69.8,58.1,62.0,58.7,55.0,95,71,42,30.18,30.08,3,1,7,0.00
2013-8-5,76.7,68.3,60.8,68.0,62.9,58.0,93,83,68,30.10,29.86,8,3,14,0.00
2013-8-6,87.3,75.2,65.8,76.0,70.4,65.0,99,86,61,29.91,29.80,9,2,11,0.00
2013-8-7,85.4,75.6,68.7,77.0,71.9,66.0,97,88,73,29.92,29.79,7,2,11,0.18
2013-8-8,79.9,71.0,62.7,70.0,66.5,62.0,98,86,71,29.98,29.91,6,2,10,0.18
2013-8-9,79.5,70.9,59.9,67.0,63.6,58.0,96,79,60,30.06,29.97,4,1,5,0.00
2013-8-10,80.0,70.9,60.8,66.0,60.8,56.0,93,72,47,30.15,30.07,8,3,16,0.00
2013-8-11,83.1,71.6,57.5,67.0,60.8,56.0,94,71,44,30.14,30.04,7,1,9,0.00
2013-8-12,81.4,73.1,64.7,72.0,66.9,62.0,91,81,67,30.06,29.90,7,2,11,0.02
2013-8-13,75.0,65.2,54.1,63.0,58.2,51.0,94,79,53,30.16,29.95,8,2,13,0.02
2013-8-14,74.9,61.1,49.4,57.0,52.1,49.0,98,75,41,30.24,30.15,7,1,9,0.00
2013-8-15,75.9,64.2,55.7,58.0,54.8,51.0,92,74,44,30.19,30.10,4,1,7,0.00
2013-8-16,79.4,66.6,56.1,60.0,56.8,54.0,95,73,42,30.18,30.13,9,1,10,0.00
2013-8-17,80.4,67.4,55.9,63.0,57.3,55.0,98,73,44,30.22,30.14,8,1,10,0.00
2013-8-18,82.9,69.0,55.3,63.0,59.1,55.0,97,74,46,30.20,30.10,5,1,10,0.00
2013-8-19,83.5,73.1,62.2,69.0,64.6,60.0,97,76,53,30.13,30.03,7,1,11,0.00
2013-8-20,85.6,74.9,64.2,69.0,65.7,62.0,92,75,52,30.10,30.02,9,2,12,0.00
2013-8-21,88.1,76.6,66.4,70.0,66.9,65.0,94,74,49,30.10,29.99,10,2,13,0.00
2013-8-22,84.9,75.6,67.9,72.0,69.2,66.0,92,81,66,30.08,30.02,7,2,13,0.00
2013-8-23,85.9,74.4,64.7,70.0,67.4,64.0,98,80,57,30.12,30.07,6,1,8,0.00
2013-8-24,87.3,74.2,60.8,71.0,66.7,60.0,98,79,55,30.22,30.11,8,2,11,0.00
2013-8-25,88.3,76.6,65.9,70.0,66.8,63.0,90,73,51,30.25,30.15,9,2,11,0.00
2013-8-26,91.8,78.9,67.1,74.0,69.8,63.0,93,75,52,30.17,30.02,6,2,10,0.00
2013-8-27,95.0,82.5,71.7,72.0,68.1,62.0,91,65,39,30.03,29.92,13,4,16,0.00
2013-8-28,96.2,83.4,72.7,72.0,67.4,62.0,82,60,40,29.98,29.92,10,3,14,0.00
2013-8-29,89.3,78.9,69.9,77.0,73.7,69.0,97,85,65,30.03,29.95,5,1,9,0.00
2013-8-30,98.8,84.2,72.4,78.0,73.3,70.0,98,73,40,29.95,29.78,8,3,12,0.00
2013-8-31,93.4,81.3,71.5,77.0,72.0,67.0,93,74,57,29.80,29.72,9,3,13,0.00
2013-9-1,89.4,76.5,66.0,74.0,67.4,60.0,99,76,43,29.85,29.76,7,2,14,0.00
2013-9-2,79.8,69.1,59.8,64.0,58.9,54.0,92,72,46,30.00,29.85,11,4,15,0.00
2013-9-3,79.5,65.2,52.9,61.0,56.4,52.0,97,76,44,30.10,30.00,7,1,8,0.00
2013-9-4,85.4,70.9,55.8,63.0,57.2,50.0,97,66,30,30.16,30.07,8,1,8,0.00
2013-9-5,87.4,74.6,61.5,67.0,62.0,58.0,89,67,45,30.19,30.12,7,1,9,0.00
2013-9-6,85.7,73.2,60.9,67.0,63.8,60.0,98,75,48,30.18,30.02,9,2,12,0.00
2013-9-7,88.8,75.4,62.8,72.0,66.1,61.0,94,75,49,30.02,29.88,9,2,13,0.00
2013-9-8,84.7,75.9,68.3,73.0,70.0,66.0,97,82,66,29.97,29.86,12,3,18,2.10
2013-9-9,95.3,81.5,70.8,75.0,70.8,66.0,97,73,45,29.92,29.84,9,3,14,0.00
2013-9-10,94.6,82.0,70.6,71.0,67.5,64.0,82,63,40,30.05,29.92,7,2,14,0.00
2013-9-11,94.9,80.8,70.5,71.0,66.1,62.0,87,63,34,30.09,29.99,10,3,14,0.02
2013-9-12,82.6,71.1,59.0,69.0,60.0,48.0,96,72,34,30.10,30.01,13,4,21,0.26
2013-9-13,70.3,59.5,49.9,52.0,47.0,38.0,93,67,31,30.20,30.09,13,3,15,0.00
2013-9-14,71.9,58.1,44.6,50.0,46.1,43.0,97,68,37,30.20,30.04,6,1,10,0.00
2013-9-15,69.2,60.7,54.3,64.0,54.8,47.0,95,81,65,30.18,29.98,13,4,19,0.02
2013-9-16,69.8,60.1,54.2,57.0,54.3,49.0,96,82,55,30.34,30.18,8,2,12,0.02
2013-9-17,72.4,60.3,49.5,63.0,55.7,48.0,96,85,66,30.31,30.10,10,1,12,0.01
2013-9-18,84.5,71.8,60.3,71.0,65.1,57.0,94,80,62,30.10,29.91,12,4,17,0.02
2013-9-19,88.1,77.0,66.8,72.0,68.6,65.0,96,77,55,29.94,29.78,10,4,23,0.70
2013-9-20,70.4,65.1,55.9,67.0,59.7,50.0,98,84,54,29.93,29.83,11,4,16,0.78
2013-9-21,69.1,57.8,49.2,53.0,49.3,47.0,93,76,47,29.97,29.90,10,3,16,0.00
2013-9-22,73.3,58.3,46.2,54.0,49.6,45.0,98,75,44,30.06,29.95,6,1,7,0.01
2013-9-23,74.8,59.5,45.4,54.0,48.9,44.0,97,71,40,30.07,29.95,8,2,13,0.00
2013-9-24,77.4,63.1,50.4,62.0,54.8,48.0,93,75,55,29.98,29.84,6,1,13,0.00
2013-9-25,79.8,66.4,54.5,62.0,57.2,51.0,89,73,52,29.91,29.85,8,2,11,0.00
2013-9-26,82.6,68.1,53.8,66.0,57.8,52.0,95,71,46,30.02,29.91,7,2,10,0.00
2013-9-27,82.1,68.5,57.6,63.0,55.3,52.0,82,65,39,30.10,30.00,11,3,14,0.00
2013-9-28,79.7,66.8,57.5,68.0,60.0,54.0,96,80,57,30.02,29.91,12,3,25,0.32
2013-9-29,70.7,58.8,49.5,56.0,49.2,44.0,98,74,40,30.10,30.00,7,2,14,0.33
2013-9-30,76.7,61.4,46.1,58.0,51.8,45.0,97,74,45,30.00,29.87,10,2,12,0.01
2013-10-1,79.9,67.8,58.9,68.0,63.8,57.0,98,88,64,29.99,29.90,9,4,15,0.00
2013-10-2,82.4,70.5,62.8,70.0,65.9,63.0,99,86,58,30.05,29.94,5,2,11,0.01
2013-10-3,81.9,69.7,63.1,71.0,64.5,-99.9,98,89,68,29.94,29.81,10,3,26,0.30
2013-10-4,85.6,73.7,64.9,72.0,67.7,64.0,99,83,55,29.94,29.86,10,4,11,0.31
2013-10-5,73.4,67.1,54.2,70.0,63.5,49.0,96,88,77,29.91,29.79,7,3,18,0.01
2013-10-6,53.9,48.1,44.3,48.0,43.7,39.0,96,85,62,29.87,29.80,13,3,15,0.21
2013-10-7,69.8,56.0,45.1,50.0,46.9,44.0,97,75,41,30.12,29.87,8,3,14,0.21
2013-10-8,75.8,61.0,48.5,52.0,48.3,46.0,92,66,36,30.20,30.11,8,3,17,0.00
2013-10-9,72.8,59.1,45.8,50.0,47.6,44.0,95,68,40,30.21,30.10,7,1,10,0.00
2013-10-10,76.6,62.8,51.4,58.0,53.6,47.0,91,74,47,30.16,30.00,8,1,13,0.00
2013-10-11,77.6,65.0,54.6,61.0,55.9,54.0,97,75,47,30.03,29.88,13,3,20,0.01
2013-10-12,72.6,62.8,53.4,61.0,50.7,40.0,94,68,32,30.22,29.92,10,3,13,0.00
2013-10-13,67.6,54.2,43.8,42.0,37.1,32.0,79,56,28,30.41,30.22,7,2,11,0.00
2013-10-14,67.2,53.1,38.0,46.0,40.5,36.0,94,65,37,30.39,30.07,9,1,12,0.00
2013-10-15,69.7,59.2,48.3,61.0,52.2,41.0,97,78,60,30.06,29.83,12,4,22,0.06
2013-10-16,53.2,49.0,43.2,43.0,41.9,40.0,88,77,67,30.02,29.95,10,3,15,0.00
2013-10-17,61.8,51.4,44.8,46.0,42.2,37.0,96,73,40,30.00,29.88,12,2,17,0.06
2013-10-18,55.2,46.7,40.9,42.0,39.4,36.0,92,77,51,30.06,29.91,13,4,15,0.03
2013-10-19,56.4,46.1,36.2,40.0,36.6,32.0,95,73,40,30.01,29.89,10,4,17,0.04
2013-10-20,70.3,54.1,38.6,45.0,40.1,36.0,93,63,34,29.92,29.77,14,4,21,0.00
2013-10-21,57.8,45.8,36.9,44.0,33.4,24.0,84,64,38,30.05,29.87,12,4,19,0.00
2013-10-22,45.3,38.9,33.9,44.0,35.9,29.0,95,89,69,30.05,29.83,12,3,17,0.12
2013-10-23,44.7,38.0,30.4,36.0,31.5,28.0,94,79,53,30.15,30.03,11,4,15,0.12
2013-10-24,39.7,36.1,29.3,35.0,26.6,23.0,91,70,52,30.42,30.13,13,4,19,0.00
2013-10-25,54.9,40.4,27.7,33.0,26.9,23.0,89,62,30,30.50,30.19,10,3,15,0.00
2013-10-26,56.5,46.3,36.8,37.0,30.0,25.0,71,54,33,30.18,30.01,21,5,26,0.00
2013-10-27,58.5,44.3,32.1,32.0,29.2,26.0,79,58,33,30.15,30.02,8,2,11,0.00
2013-10-28,65.2,49.0,35.5,39.0,33.1,30.0,82,57,29,30.30,30.07,5,1,11,0.00
2013-10-29,54.2,47.2,39.9,52.0,43.5,38.0,98,87,66,30.30,30.11,5,1,9,0.06
2013-10-30,63.9,58.0,52.3,64.0,57.7,52.0,99,98,96,30.10,29.77,8,3,13,0.56
2013-10-31,63.2,55.5,45.3,62.0,54.5,43.0,98,96,91,29.76,29.34,11,5,19,0.11
2013-11-1,53.3,46.8,42.2,44.0,41.9,39.0,97,84,64,29.83,29.55,11,4,17,0.12
2013-11-2,51.7,44.7,36.8,41.0,36.5,31.0,91,74,50,30.20,29.82,15,5,20,0.01
2013-11-3,55.5,43.6,32.3,37.0,33.2,30.0,93,69,43,30.31,30.17,11,3,20,0.00
2013-11-4,55.8,50.2,44.7,45.0,40.7,36.0,76,70,58,30.20,30.08,20,6,22,0.00
2013-11-5,54.8,52.5,50.3,53.0,49.9,45.0,97,91,76,30.25,29.95,12,5,21,0.28
2013-11-6,56.0,45.2,34.8,56.0,42.3,30.0,98,89,80,30.27,29.86,20,7,24,0.61
2013-11-7,50.5,39.0,30.1,37.0,30.7,27.0,90,73,47,30.36,30.28,12,3,20,0.00
2013-11-8,50.7,42.0,28.5,36.0,31.7,26.0,94,69,52,30.37,30.01,14,5,22,0.00
2013-11-9,63.8,52.6,43.7,41.0,37.0,35.0,75,57,35,30.25,29.98,18,6,24,0.00
2013-11-10,51.0,41.2,33.6,35.0,30.7,28.0,81,68,45,30.45,30.26,9,3,13,0.00
2013-11-11,54.6,41.4,25.7,41.0,33.0,21.0,95,73,57,30.59,30.16,19,7,24,0.01
2013-11-12,30.8,23.7,17.8,21.0,16.8,14.0,86,75,60,30.83,30.60,12,4,16,0.01
2013-11-13,43.1,30.5,17.7,20.0,16.8,14.0,91,60,32,30.73,30.26,14,4,20,0.01
2013-11-14,53.4,41.2,31.7,24.0,20.7,18.0,61,46,30,30.26,30.01,11,5,19,0.00
2013-11-15,51.7,42.8,36.3,38.0,32.4,22.0,86,67,53,30.04,29.91,11,4,15,0.00
2013-11-16,60.4,54.2,42.8,55.0,50.6,39.0,91,87,79,29.91,29.56,17,9,27,0.06
2013-11-17,71.1,57.4,44.4,65.0,51.7,40.0,94,82,63,29.92,29.24,31,9,40,0.18
2013-11-18,48.9,41.6,33.4,40.0,32.6,27.0,88,72,48,30.33,29.93,18,6,22,0.00
2013-11-19,47.1,36.1,26.7,29.0,27.2,25.0,93,72,44,30.39,30.25,7,2,12,0.00
2013-11-20,41.2,36.6,32.6,38.0,32.7,28.0,95,85,76,30.26,30.04,13,4,17,0.39
2013-11-21,48.4,45.0,40.5,46.0,42.8,38.0,97,92,87,30.27,30.09,9,2,12,0.08
2013-11-22,40.4,33.9,25.1,39.0,31.5,23.0,96,91,81,30.59,30.27,18,6,21,0.09
2013-11-23,24.7,21.1,13.9,23.0,15.0,9.0,92,77,64,30.80,30.58,20,8,26,0.00
2013-11-24,27.8,18.9,9.4,14.0,9.6,6.0,88,69,42,30.84,30.46,7,3,12,0.00
2013-11-25,34.9,29.6,24.1,22.0,17.2,12.0,69,60,48,30.45,30.18,11,4,16,0.00
2013-11-26,34.5,27.0,18.2,27.0,18.4,9.0,85,71,53,30.31,30.13,17,7,27,0.00
2013-11-27,27.3,19.5,12.2,12.0,9.0,7.0,80,65,46,30.40,30.29,11,4,19,0.00
2013-11-28,39.3,27.5,18.4,22.0,17.3,11.0,81,66,50,30.56,30.23,9,4,15,0.00
2013-11-29,39.0,28.4,16.4,26.0,19.9,14.0,92,72,50,30.65,30.41,9,2,14,0.00
2013-11-30,51.8,39.7,29.4,36.0,31.5,25.0,89,74,53,30.41,30.10,11,4,13,0.00
2013-12-1,49.2,39.8,30.6,35.0,32.1,29.0,94,75,55,30.16,29.96,6,1,7,0.00
2013-12-2,46.4,39.1,32.8,39.0,34.7,30.0,95,85,71,29.96,29.69,5,1,10,0.00
2013-12-3,50.8,44.8,38.2,49.0,43.9,37.0,99,97,93,29.70,29.60,8,3,12,0.01
2013-12-4,55.0,47.0,30.5,53.0,45.6,27.0,99,95,82,29.86,29.50,17,4,23,0.01
2013-12-5,30.2,22.5,19.1,26.0,15.0,11.0,85,73,65,30.36,29.88,15,8,24,0.01
2013-12-6,19.1,15.3,10.4,12.0,7.6,5.0,79,72,61,30.68,30.36,16,7,19,0.00
2013-12-7,20.9,12.7,5.8,7.0,4.3,2.0,85,70,45,30.80,30.59,11,4,13,0.00
2013-12-8,24.3,20.7,14.4,23.0,16.6,8.0,94,84,72,30.56,30.07,12,3,18,0.00
2013-12-9,23.5,17.1,9.9,21.0,11.4,4.0,89,78,70,30.34,30.09,14,6,21,0.00
2013-12-10,28.5,18.8,8.0,15.0,9.0,3.0,83,66,52,30.36,30.18,18,4,26,0.00
2013-12-11,25.0,15.7,3.2,18.0,7.3,-4.0,82,70,51,30.70,30.30,21,5,26,0.00
2013-12-12,36.8,20.2,3.2,18.0,9.0,-2.0,85,64,45,30.66,30.28,13,4,16,0.00
2013-12-13,36.7,29.3,22.3,31.0,22.6,14.0,97,77,53,30.27,30.03,8,3,12,0.00
2013-12-14,31.1,28.0,19.8,31.0,26.5,17.0,98,94,87,30.16,29.94,14,2,17,0.00
2013-12-15,22.3,18.1,14.5,16.0,13.9,11.0,91,84,71,30.20,30.12,13,4,15,0.00
2013-12-16,22.6,19.3,15.5,22.0,17.1,13.0,96,91,85,30.18,30.06,11,2,17,0.00
2013-12-17,36.7,27.3,19.1,29.0,21.1,13.0,95,79,57,30.28,30.15,17,5,22,0.15
2013-12-18,40.7,31.0,18.4,31.0,21.5,13.0,86,69,48,30.27,29.89,19,6,22,0.14
2013-12-19,47.6,42.3,35.0,44.0,38.0,30.0,94,85,74,29.91,29.76,7,5,11,0.15
2013-12-20,46.4,37.0,28.1,46.0,36.3,27.0,98,97,93,29.89,29.72,13,4,15,0.10
2013-12-21,31.5,28.8,27.1,31.0,27.8,26.0,97,96,94,29.90,29.64,7,4,11,0.00
2013-12-22,31.6,27.4,17.8,31.0,25.9,15.0,98,94,88,30.30,29.66,9,4,13,0.00
2013-12-23,18.8,11.5,4.1,16.0,7.2,-2.0,90,82,74,30.63,30.31,11,5,14,0.00
2013-12-24,18.5,7.5,-1.2,13.0,1.8,-7.0,84,77,73,30.69,30.43,8,4,16,0.00
2013-12-30,19.2,16.0,12.4,10.0,0.0,-99.9,67,57,50,30.34,30.25,6,-20,9,0.00
2013-12-31,31.2,21.2,12.6,22.0,14.9,10.0,88,77,61,30.44,30.21,8,3,14,0.00
2014-1-1,24.6,20.4,13.8,20.0,17.2,11.0,93,87,81,30.24,30.15,10,4,19,0.00
2014-1-2,14.9,10.6,1.1,11.0,6.6,-3.0,90,84,77,30.53,30.20,16,7,20,0.00